createdAt,value
2019-02-21T13:33:11.054Z,21.07
2019-02-21T13:35:52.176Z,13.13
2019-02-21T13:38:14.514Z,11.67
2019-02-21T13:40:45.360Z,12.63
2019-02-21T13:43:16.322Z,17.53
2019-02-21T13:45:48.288Z,13.97
2019-02-21T13:48:19.141Z,12.77
2019-02-21T13:50:50.038Z,14.37
2019-02-21T13:53:20.889Z,15.60
2019-02-21T13:55:51.741Z,12.90
2019-02-21T13:58:22.672Z,9.97
2019-02-21T14:00:53.536Z,9.53
2019-02-21T14:03:24.381Z,17.10
2019-02-21T14:06:03.206Z,14.17
2019-02-21T14:08:27.846Z,17.10
2019-02-21T14:10:58.724Z,12.87
2019-02-21T14:13:29.682Z,11.07
2019-02-21T14:16:00.535Z,10.43
2019-02-21T14:18:31.402Z,17.43
2019-02-21T14:21:02.309Z,12.60
2019-02-21T14:23:33.177Z,20.73
2019-02-21T14:26:04.160Z,19.33
2019-02-21T14:28:37.412Z,18.67
2019-02-21T14:31:07.595Z,22.17
2019-02-21T14:33:38.546Z,13.97
2019-02-21T14:36:15.484Z,14.73
2019-02-21T14:38:41.979Z,14.60
2019-02-21T14:41:12.925Z,20.97
2019-02-21T14:43:43.819Z,16.43
2019-02-21T14:46:14.699Z,14.90
2019-02-21T14:48:45.713Z,19.23
2019-02-21T14:51:16.569Z,16.00
2019-02-21T14:53:47.420Z,15.10
2019-02-21T14:56:20.048Z,23.13
2019-02-21T14:58:50.874Z,12.40
2019-02-21T15:01:21.737Z,18.00
2019-02-21T15:03:52.683Z,19.27
2019-02-21T15:06:26.983Z,12.77
2019-02-21T15:08:56.098Z,18.87
2019-02-21T15:11:28.829Z,11.33
2019-02-21T15:13:59.695Z,36.60
2019-02-21T15:16:30.700Z,19.27
2019-02-21T15:19:01.556Z,18.57
2019-02-21T15:21:32.448Z,20.33
2019-02-21T15:24:03.832Z,21.60
2019-02-21T15:26:34.805Z,19.90
2019-02-21T15:29:05.699Z,22.90
2019-02-21T15:31:36.588Z,19.03
2019-02-21T15:34:07.437Z,21.37
2019-02-21T15:36:38.725Z,20.90
2019-02-21T15:39:10.498Z,22.27
2019-02-21T15:41:41.394Z,16.20
2019-02-21T15:44:12.378Z,15.20
2019-02-21T15:46:43.256Z,53.07
2019-02-21T15:49:14.132Z,12.77
2019-02-21T15:51:45.060Z,20.83
2019-02-21T15:54:15.943Z,23.77
2019-02-21T15:56:46.890Z,23.50
2019-02-21T15:59:17.939Z,17.87
2019-02-21T16:01:48.818Z,15.57
2019-02-21T16:04:19.677Z,20.93
2019-02-21T16:06:51.798Z,17.63
2019-02-21T16:09:25.223Z,19.00
2019-02-21T16:11:55.630Z,14.77
2019-02-21T16:14:26.607Z,29.37
2019-02-21T16:16:57.503Z,56.90
2019-02-21T16:19:28.373Z,28.83
2019-02-21T16:21:59.362Z,49.10
2019-02-21T16:24:30.273Z,87.80
2019-02-21T16:27:01.247Z,101.80
2019-02-21T16:29:32.362Z,47.93
2019-02-21T16:32:03.521Z,34.40
2019-02-21T16:34:34.409Z,33.50
2019-02-21T16:37:05.321Z,33.67
2019-02-21T16:39:36.218Z,40.13
2019-02-21T16:42:07.105Z,23.63
2019-02-21T16:44:38.141Z,28.87
2019-02-21T16:47:09.035Z,46.27
2019-02-21T16:49:39.914Z,24.80
2019-02-21T16:52:10.868Z,21.63
2019-02-21T16:54:41.913Z,26.43
2019-02-21T16:57:12.789Z,25.50
2019-02-21T16:59:43.967Z,33.23
2019-02-21T17:02:14.871Z,25.20
2019-02-21T17:04:45.750Z,21.30
2019-02-21T17:07:20.253Z,31.60
2019-02-21T17:09:49.289Z,58.70
2019-02-21T17:12:20.454Z,44.38
2019-02-21T17:14:51.709Z,37.47
2019-02-21T17:17:22.600Z,31.50
2019-02-21T17:19:53.485Z,42.67
2019-02-21T17:22:24.492Z,23.57
2019-02-21T17:24:55.553Z,22.13
2019-02-21T17:27:27.414Z,30.10
2019-02-21T17:30:00.562Z,38.17
2019-02-21T17:32:31.441Z,40.87
2019-02-21T17:35:02.347Z,24.63
2019-02-21T17:37:33.306Z,20.20
2019-02-21T17:40:04.823Z,22.80
2019-02-21T17:42:35.746Z,22.50
2019-02-21T17:45:08.354Z,18.43
2019-02-21T17:47:39.371Z,22.73
2019-02-21T17:50:11.864Z,23.57
2019-02-21T17:52:42.802Z,27.37
2019-02-21T17:55:14.081Z,36.57
2019-02-21T17:57:45.088Z,33.60
2019-02-21T18:00:20.203Z,59.37
2019-02-21T18:02:53.967Z,29.70
2019-02-21T18:05:24.927Z,27.17
2019-02-21T18:07:55.792Z,28.70
2019-02-21T18:10:29.920Z,24.13
2019-02-21T18:13:01.012Z,23.33
2019-02-21T18:15:32.001Z,46.80
2019-02-21T18:18:02.878Z,35.07
2019-02-21T18:20:33.840Z,42.73
2019-02-21T18:23:04.711Z,29.20
2019-02-21T18:25:41.501Z,31.03
2019-02-21T18:28:12.540Z,24.27
2019-02-21T18:30:43.572Z,27.10
2019-02-21T18:33:14.675Z,23.53
2019-02-21T18:35:45.635Z,23.07
2019-02-21T18:38:16.561Z,32.93
2019-02-21T18:40:47.777Z,22.50
2019-02-21T18:43:18.897Z,25.80
2019-02-21T18:45:49.934Z,35.10
2019-02-21T18:48:21.104Z,22.97
2019-02-21T18:50:52.044Z,17.07
2019-02-21T18:53:23.161Z,19.47
2019-02-21T18:55:54.771Z,16.27
2019-02-21T18:58:27.283Z,15.27
2019-02-21T19:00:58.463Z,17.40
2019-02-21T19:03:29.742Z,22.90
2019-02-21T19:06:03.080Z,22.07
2019-02-21T19:08:36.115Z,16.87
2019-02-21T19:11:07.457Z,16.67
2019-02-21T19:13:38.911Z,34.27
2019-02-21T19:16:10.327Z,36.23
2019-02-21T19:18:43.760Z,33.70
2019-02-21T19:21:18.573Z,36.63
2019-02-21T19:23:50.946Z,36.43
2019-02-21T19:26:22.396Z,38.23
2019-02-21T19:28:54.315Z,44.43
2019-02-21T19:31:29.286Z,39.50
2019-02-21T19:34:02.169Z,46.50
2019-02-21T19:36:33.699Z,45.50
2019-02-21T19:39:06.828Z,51.20
2019-02-21T19:41:38.256Z,39.90
2019-02-21T19:44:10.010Z,45.40
2019-02-21T19:46:41.659Z,45.13
2019-02-21T19:49:13.523Z,40.90
2019-02-21T19:51:44.842Z,76.37
2019-02-21T19:54:15.780Z,48.30
2019-02-21T19:56:47.195Z,84.77
2019-02-21T19:59:20.152Z,51.20
2019-02-21T20:01:51.190Z,35.60
2019-02-21T20:04:22.890Z,29.37
2019-02-21T20:06:54.114Z,25.00
2019-02-21T20:09:25.133Z,22.07
2019-02-21T20:11:56.481Z,22.40
2019-02-21T20:14:27.356Z,24.07
2019-02-21T20:16:58.765Z,25.70
2019-02-21T20:19:29.890Z,36.00
2019-02-21T20:22:01.036Z,32.80
2019-02-21T20:24:34.068Z,29.80
2019-02-21T20:27:05.245Z,30.13
2019-02-21T20:29:36.670Z,34.73
2019-02-21T20:32:07.879Z,50.27
2019-02-21T20:34:38.834Z,50.43
2019-02-21T20:37:09.926Z,36.27
2019-02-21T20:39:40.791Z,28.43
2019-02-21T20:42:11.759Z,29.87
2019-02-21T20:44:44.234Z,30.33
2019-02-21T20:47:15.417Z,40.93
2019-02-21T20:49:46.797Z,66.87
2019-02-21T20:52:17.928Z,70.37
2019-02-21T20:54:48.800Z,31.00
2019-02-21T20:57:19.869Z,27.23
2019-02-21T21:00:11.084Z,27.43
2019-02-21T21:03:00.996Z,30.10
2019-02-21T21:05:50.331Z,25.93
2019-02-21T21:08:44.262Z,26.90
2019-02-21T21:11:30.696Z,26.77
2019-02-21T21:14:20.264Z,28.33
2019-02-21T21:17:09.777Z,28.27
2019-02-21T21:19:59.206Z,26.53
2019-02-21T21:22:48.619Z,26.53
2019-02-21T21:25:38.156Z,25.87
2019-02-21T21:28:27.584Z,22.80
2019-02-21T21:31:17.890Z,19.50
2019-02-21T21:34:08.546Z,22.47
2019-02-21T21:36:57.965Z,21.97
2019-02-21T21:39:47.465Z,23.27
2019-02-21T21:42:36.753Z,20.87
2019-02-21T21:45:26.201Z,25.23
2019-02-21T21:48:15.731Z,23.70
2019-02-21T21:51:07.359Z,26.97
2019-02-21T21:53:56.911Z,28.07
2019-02-21T21:56:46.085Z,30.27
2019-02-21T21:59:35.677Z,35.93
2019-02-21T22:02:27.375Z,44.27
2019-02-21T22:05:17.262Z,43.00
2019-02-21T22:08:06.428Z,39.40
2019-02-21T22:10:56.044Z,44.87
2019-02-21T22:13:45.856Z,34.97
2019-02-21T22:16:35.659Z,23.53
2019-02-21T22:19:25.360Z,19.50
2019-02-21T22:22:14.878Z,19.60
2019-02-21T22:25:04.348Z,25.43
2019-02-21T22:27:54.162Z,26.83
2019-02-21T22:30:43.573Z,25.73
2019-02-21T22:33:36.160Z,20.67
2019-02-21T22:36:25.700Z,19.63
2019-02-21T22:39:16.596Z,17.33
2019-02-21T22:42:05.987Z,18.80
2019-02-21T22:44:55.513Z,21.70
2019-02-21T22:47:44.529Z,23.33
2019-02-21T22:50:34.310Z,23.20
2019-02-21T22:53:23.495Z,24.07
2019-02-21T22:56:13.562Z,25.03
2019-02-21T22:59:03.160Z,25.70
2019-02-21T23:01:53.137Z,32.17
2019-02-21T23:05:01.147Z,29.03
2019-02-21T23:07:59.734Z,27.47
2019-02-21T23:10:51.376Z,25.97
2019-02-21T23:13:40.344Z,24.37
2019-02-21T23:16:29.956Z,23.53
2019-02-21T23:19:19.700Z,22.57
2019-02-21T23:22:09.406Z,21.77
2019-02-21T23:24:58.659Z,22.83
2019-02-21T23:27:48.022Z,22.87
2019-02-21T23:30:37.547Z,26.33
2019-02-21T23:33:27.451Z,28.73
2019-02-21T23:36:17.185Z,28.03
2019-02-21T23:39:07.856Z,22.47
2019-02-21T23:41:57.542Z,18.67
2019-02-21T23:44:47.281Z,17.87
2019-02-21T23:47:36.947Z,20.60
2019-02-21T23:50:26.165Z,20.53
2019-02-21T23:53:15.850Z,25.07
2019-02-21T23:56:05.364Z,42.77
2019-02-21T23:58:55.013Z,35.43
